N236PW KRDG-KHEF
Flight info
| Callsign | N236PW |
|---|---|
| Flight time | 0h 50m |
| Altitude | 8000 |
| Route | LRP AML |
| Aircraft | BE36/L-BDFGLORY/S |
Departure
| Time | 2026-04-23 18:26 |
|---|---|
| Airport | Reading Regional Airport (Carl A Spaatz Field) (KRDG) |
Arrival
| Time | 2026-04-23 19:17 |
|---|---|
| Airport | Manassas Regional Airport/Harry P. Davis Field (KHEF) |
| Time | Latitude | Longitude | Altitude | Speed | Heading |
|---|---|---|---|---|---|
| 2026-04-23 18:19 | 40.37758 | -75.97053 | 363 ft | 0 kts | 258° |
| 2026-04-23 18:22 | 40.37764 | -75.97076 | 335 ft | 7 kts | 320° |
| 2026-04-23 18:22 | 40.37829 | -75.97084 | 335 ft | 11 kts | 15° |
| 2026-04-23 18:22 | 40.37822 | -75.97000 | 336 ft | 14 kts | 121° |
| 2026-04-23 18:22 | 40.37760 | -75.96869 | 333 ft | 18 kts | 123° |
| 2026-04-23 18:23 | 40.37717 | -75.96776 | 331 ft | 20 kts | 122° |
| 2026-04-23 18:23 | 40.37554 | -75.96429 | 329 ft | 17 kts | 124° |
| 2026-04-23 18:24 | 40.37480 | -75.96266 | 332 ft | 0 kts | 116° |
| 2026-04-23 18:24 | 40.37480 | -75.96265 | 332 ft | 2 kts | 114° |
| 2026-04-23 18:24 | 40.37495 | -75.96219 | 332 ft | 9 kts | 37° |
| 2026-04-23 18:25 | 40.37603 | -75.96185 | 330 ft | 0 kts | 301° |
| 2026-04-23 18:25 | 40.37638 | -75.96260 | 330 ft | 36 kts | 302° |
| 2026-04-23 18:25 | 40.37861 | -75.96742 | 343 ft | 81 kts | 300° |
| 2026-04-23 18:25 | 40.38189 | -75.97428 | 458 ft | 95 kts | 299° |
| 2026-04-23 18:26 | 40.38542 | -75.98189 | 653 ft | 100 kts | 297° |
| 2026-04-23 18:26 | 40.38883 | -75.98978 | 987 ft | 98 kts | 285° |
| 2026-04-23 18:26 | 40.38758 | -75.99846 | 1253 ft | 109 kts | 230° |
| 2026-04-23 18:26 | 40.38015 | -76.00202 | 1567 ft | 121 kts | 191° |
| 2026-04-23 18:27 | 40.37157 | -76.00249 | 1778 ft | 126 kts | 187° |
| 2026-04-23 18:27 | 40.36280 | -76.00264 | 2015 ft | 126 kts | 184° |
| 2026-04-23 18:27 | 40.35397 | -76.00330 | 2272 ft | 126 kts | 195° |
| 2026-04-23 18:27 | 40.34580 | -76.00678 | 2543 ft | 122 kts | 218° |
| 2026-04-23 18:28 | 40.33951 | -76.01405 | 2738 ft | 122 kts | 229° |
| 2026-04-23 18:28 | 40.33337 | -76.02210 | 2910 ft | 127 kts | 230° |
| 2026-04-23 18:28 | 40.32697 | -76.03051 | 3068 ft | 132 kts | 230° |
| 2026-04-23 18:28 | 40.32035 | -76.03889 | 3242 ft | 133 kts | 227° |
| 2026-04-23 18:29 | 40.31367 | -76.04752 | 3412 ft | 136 kts | 228° |
| 2026-04-23 18:29 | 40.30678 | -76.05605 | 3585 ft | 138 kts | 228° |
| 2026-04-23 18:29 | 40.29989 | -76.06467 | 3756 ft | 135 kts | 228° |
| 2026-04-23 18:29 | 40.29317 | -76.07324 | 3933 ft | 135 kts | 229° |
| 2026-04-23 18:30 | 40.28639 | -76.08175 | 4114 ft | 135 kts | 228° |
| 2026-04-23 18:30 | 40.27962 | -76.09047 | 4288 ft | 137 kts | 229° |
| 2026-04-23 18:30 | 40.27505 | -76.09612 | 4405 ft | 135 kts | 228° |
| 2026-04-23 18:30 | 40.26831 | -76.10459 | 4583 ft | 134 kts | 229° |
| 2026-04-23 18:31 | 40.26165 | -76.11302 | 4762 ft | 133 kts | 231° |
| 2026-04-23 18:31 | 40.25498 | -76.12145 | 4931 ft | 133 kts | 228° |
| 2026-04-23 18:31 | 40.24836 | -76.12978 | 5116 ft | 132 kts | 230° |
| 2026-04-23 18:31 | 40.23959 | -76.14082 | 5338 ft | 131 kts | 230° |
| 2026-04-23 18:32 | 40.23516 | -76.14640 | 5450 ft | 131 kts | 231° |
| 2026-04-23 18:32 | 40.22852 | -76.15480 | 5626 ft | 134 kts | 231° |
| 2026-04-23 18:32 | 40.22174 | -76.16336 | 5803 ft | 136 kts | 231° |
| 2026-04-23 18:32 | 40.21487 | -76.17202 | 5980 ft | 137 kts | 231° |
| 2026-04-23 18:33 | 40.20803 | -76.18060 | 6156 ft | 136 kts | 232° |
| 2026-04-23 18:33 | 40.20124 | -76.18918 | 6332 ft | 135 kts | 232° |
| 2026-04-23 18:33 | 40.19445 | -76.19771 | 6501 ft | 135 kts | 233° |
| 2026-04-23 18:33 | 40.18770 | -76.20618 | 6667 ft | 134 kts | 233° |
| 2026-04-23 18:34 | 40.18100 | -76.21463 | 6833 ft | 134 kts | 233° |
| 2026-04-23 18:34 | 40.17426 | -76.22306 | 6999 ft | 133 kts | 233° |
| 2026-04-23 18:34 | 40.16760 | -76.23146 | 7156 ft | 133 kts | 234° |
| 2026-04-23 18:34 | 40.16095 | -76.23982 | 7277 ft | 135 kts | 233° |
| 2026-04-23 18:35 | 40.15413 | -76.24843 | 7404 ft | 138 kts | 233° |
| 2026-04-23 18:35 | 40.14717 | -76.25718 | 7528 ft | 139 kts | 233° |
| 2026-04-23 18:35 | 40.14016 | -76.26595 | 7650 ft | 139 kts | 233° |
| 2026-04-23 18:35 | 40.13306 | -76.27485 | 7753 ft | 141 kts | 233° |
| 2026-04-23 18:36 | 40.12603 | -76.28368 | 7853 ft | 143 kts | 233° |
| 2026-04-23 18:36 | 40.11868 | -76.29271 | 7961 ft | 148 kts | 227° |
| 2026-04-23 18:36 | 40.11025 | -76.30112 | 7985 ft | 156 kts | 226° |
| 2026-04-23 18:36 | 40.10150 | -76.31000 | 7994 ft | 162 kts | 226° |
| 2026-04-23 18:37 | 40.09248 | -76.31918 | 7991 ft | 167 kts | 226° |
| 2026-04-23 18:37 | 40.08327 | -76.32850 | 7995 ft | 168 kts | 226° |
| 2026-04-23 18:37 | 40.07401 | -76.33787 | 7993 ft | 170 kts | 226° |
| 2026-04-23 18:37 | 40.06461 | -76.34736 | 7992 ft | 172 kts | 226° |
| 2026-04-23 18:38 | 40.05511 | -76.35698 | 7992 ft | 174 kts | 226° |
| 2026-04-23 18:38 | 40.04553 | -76.36666 | 7994 ft | 175 kts | 225° |
| 2026-04-23 18:38 | 40.03587 | -76.37642 | 7992 ft | 176 kts | 225° |
| 2026-04-23 18:38 | 40.02619 | -76.38620 | 7993 ft | 176 kts | 225° |
| 2026-04-23 18:39 | 40.01650 | -76.39599 | 7991 ft | 176 kts | 226° |
| 2026-04-23 18:39 | 40.00681 | -76.40577 | 7992 ft | 176 kts | 225° |
| 2026-04-23 18:39 | 39.99710 | -76.41556 | 7988 ft | 177 kts | 225° |
| 2026-04-23 18:39 | 39.98739 | -76.42535 | 7991 ft | 176 kts | 225° |
| 2026-04-23 18:40 | 39.97772 | -76.43511 | 7988 ft | 176 kts | 225° |
| 2026-04-23 18:40 | 39.96803 | -76.44487 | 7991 ft | 176 kts | 226° |
| 2026-04-23 18:40 | 39.95833 | -76.45468 | 7994 ft | 178 kts | 225° |
| 2026-04-23 18:40 | 39.94848 | -76.46459 | 7988 ft | 179 kts | 225° |
| 2026-04-23 18:41 | 39.93868 | -76.47445 | 7990 ft | 177 kts | 225° |
| 2026-04-23 18:41 | 39.92890 | -76.48428 | 7992 ft | 178 kts | 225° |
| 2026-04-23 18:41 | 39.91908 | -76.49418 | 7992 ft | 178 kts | 226° |
| 2026-04-23 18:41 | 39.90924 | -76.50411 | 7985 ft | 179 kts | 225° |
| 2026-04-23 18:42 | 39.89940 | -76.51398 | 7977 ft | 178 kts | 225° |
| 2026-04-23 18:42 | 39.88968 | -76.52373 | 7977 ft | 176 kts | 225° |
| 2026-04-23 18:42 | 39.87996 | -76.53350 | 7980 ft | 177 kts | 225° |
| 2026-04-23 18:42 | 39.87023 | -76.54328 | 7979 ft | 176 kts | 225° |
| 2026-04-23 18:43 | 39.86055 | -76.55298 | 7978 ft | 176 kts | 224° |
| 2026-04-23 18:43 | 39.85089 | -76.56269 | 7979 ft | 176 kts | 225° |
| 2026-04-23 18:43 | 39.84122 | -76.57241 | 7981 ft | 176 kts | 225° |
| 2026-04-23 18:43 | 39.83151 | -76.58219 | 7978 ft | 176 kts | 224° |
| 2026-04-23 18:44 | 39.82177 | -76.59190 | 7983 ft | 177 kts | 225° |
| 2026-04-23 18:44 | 39.81202 | -76.60165 | 7979 ft | 176 kts | 225° |
| 2026-04-23 18:44 | 39.80232 | -76.61138 | 7983 ft | 177 kts | 225° |
| 2026-04-23 18:44 | 39.79256 | -76.62116 | 7982 ft | 177 kts | 224° |
| 2026-04-23 18:45 | 39.78278 | -76.63096 | 7982 ft | 177 kts | 224° |
| 2026-04-23 18:45 | 39.77303 | -76.64073 | 7980 ft | 177 kts | 224° |
| 2026-04-23 18:45 | 39.76327 | -76.65050 | 7983 ft | 177 kts | 224° |
| 2026-04-23 18:45 | 39.75352 | -76.66021 | 7981 ft | 176 kts | 224° |
| 2026-04-23 18:46 | 39.74386 | -76.66984 | 7976 ft | 175 kts | 225° |
| 2026-04-23 18:46 | 39.73423 | -76.67952 | 7979 ft | 175 kts | 225° |
| 2026-04-23 18:46 | 39.72454 | -76.68920 | 7974 ft | 176 kts | 225° |
| 2026-04-23 18:46 | 39.71489 | -76.69882 | 7975 ft | 174 kts | 225° |
| 2026-04-23 18:47 | 39.70529 | -76.70841 | 7975 ft | 174 kts | 225° |
| 2026-04-23 18:47 | 39.69573 | -76.71796 | 7974 ft | 173 kts | 225° |
| 2026-04-23 18:47 | 39.68626 | -76.72738 | 7976 ft | 170 kts | 225° |
| 2026-04-23 18:47 | 39.67692 | -76.73672 | 7973 ft | 170 kts | 225° |
| 2026-04-23 18:48 | 39.66753 | -76.74607 | 7978 ft | 170 kts | 225° |
| 2026-04-23 18:48 | 39.65811 | -76.75545 | 7973 ft | 171 kts | 225° |
| 2026-04-23 18:48 | 39.64868 | -76.76485 | 7979 ft | 171 kts | 225° |
| 2026-04-23 18:48 | 39.63922 | -76.77426 | 7975 ft | 171 kts | 225° |
| 2026-04-23 18:49 | 39.62983 | -76.78359 | 7973 ft | 169 kts | 225° |
| 2026-04-23 18:49 | 39.62044 | -76.79293 | 7983 ft | 171 kts | 225° |
| 2026-04-23 18:49 | 39.61099 | -76.80238 | 7987 ft | 172 kts | 225° |
| 2026-04-23 18:49 | 39.60154 | -76.81182 | 7989 ft | 172 kts | 225° |
| 2026-04-23 18:50 | 39.59509 | -76.81821 | 7986 ft | 173 kts | 224° |
| 2026-04-23 18:50 | 39.58236 | -76.83077 | 7991 ft | 174 kts | 224° |
| 2026-04-23 18:50 | 39.57280 | -76.84031 | 7985 ft | 173 kts | 225° |
| 2026-04-23 18:50 | 39.56308 | -76.84997 | 7990 ft | 174 kts | 225° |
| 2026-04-23 18:51 | 39.55344 | -76.85953 | 7992 ft | 174 kts | 224° |
| 2026-04-23 18:51 | 39.54383 | -76.86909 | 7992 ft | 175 kts | 224° |
| 2026-04-23 18:51 | 39.53415 | -76.87865 | 7976 ft | 175 kts | 224° |
| 2026-04-23 18:51 | 39.52452 | -76.88819 | 7975 ft | 174 kts | 224° |
| 2026-04-23 18:52 | 39.51491 | -76.89782 | 7979 ft | 175 kts | 224° |
| 2026-04-23 18:52 | 39.50522 | -76.90734 | 7982 ft | 174 kts | 224° |
| 2026-04-23 18:52 | 39.49562 | -76.91680 | 7984 ft | 173 kts | 224° |
| 2026-04-23 18:52 | 39.48609 | -76.92627 | 7980 ft | 172 kts | 224° |
| 2026-04-23 18:53 | 39.47659 | -76.93567 | 7979 ft | 172 kts | 225° |
| 2026-04-23 18:53 | 39.46710 | -76.94504 | 7988 ft | 172 kts | 225° |
| 2026-04-23 18:53 | 39.45771 | -76.95436 | 7980 ft | 172 kts | 224° |
| 2026-04-23 18:53 | 39.44814 | -76.96383 | 7979 ft | 171 kts | 224° |
| 2026-04-23 18:54 | 39.43864 | -76.97319 | 7984 ft | 172 kts | 225° |
| 2026-04-23 18:54 | 39.42916 | -76.98257 | 7987 ft | 172 kts | 224° |
| 2026-04-23 18:54 | 39.41979 | -76.99184 | 7989 ft | 172 kts | 224° |
| 2026-04-23 18:54 | 39.41016 | -77.00136 | 7989 ft | 172 kts | 224° |
| 2026-04-23 18:55 | 39.40063 | -77.01075 | 7989 ft | 172 kts | 224° |
| 2026-04-23 18:55 | 39.39112 | -77.02015 | 7991 ft | 172 kts | 225° |
| 2026-04-23 18:55 | 39.38157 | -77.02955 | 7993 ft | 172 kts | 224° |
| 2026-04-23 18:55 | 39.37208 | -77.03890 | 7999 ft | 171 kts | 224° |
| 2026-04-23 18:56 | 39.36580 | -77.04508 | 8000 ft | 171 kts | 224° |
| 2026-04-23 18:56 | 39.35330 | -77.05740 | 8000 ft | 171 kts | 224° |
| 2026-04-23 18:56 | 39.34382 | -77.06674 | 8001 ft | 172 kts | 224° |
| 2026-04-23 18:56 | 39.33434 | -77.07608 | 8001 ft | 171 kts | 224° |
| 2026-04-23 18:57 | 39.32483 | -77.08544 | 7999 ft | 172 kts | 224° |
| 2026-04-23 18:57 | 39.31533 | -77.09479 | 8000 ft | 172 kts | 224° |
| 2026-04-23 18:57 | 39.30583 | -77.10412 | 7998 ft | 171 kts | 224° |
| 2026-04-23 18:57 | 39.29634 | -77.11346 | 7999 ft | 172 kts | 225° |
| 2026-04-23 18:58 | 39.28686 | -77.12276 | 7997 ft | 171 kts | 225° |
| 2026-04-23 18:58 | 39.27591 | -77.12920 | 7995 ft | 178 kts | 200° |
| 2026-04-23 18:58 | 39.26375 | -77.13256 | 7996 ft | 179 kts | 199° |
| 2026-04-23 18:58 | 39.25163 | -77.13624 | 7961 ft | 181 kts | 201° |
| 2026-04-23 18:59 | 39.23915 | -77.14032 | 7793 ft | 188 kts | 200° |
| 2026-04-23 18:59 | 39.22636 | -77.14450 | 7629 ft | 191 kts | 200° |
| 2026-04-23 18:59 | 39.21342 | -77.14870 | 7461 ft | 193 kts | 200° |
| 2026-04-23 18:59 | 39.20039 | -77.15291 | 7292 ft | 193 kts | 200° |
| 2026-04-23 19:00 | 39.18736 | -77.15716 | 7121 ft | 193 kts | 200° |
| 2026-04-23 19:00 | 39.17430 | -77.16141 | 6953 ft | 193 kts | 200° |
| 2026-04-23 19:00 | 39.16123 | -77.16566 | 6790 ft | 195 kts | 200° |
| 2026-04-23 19:00 | 39.14806 | -77.16994 | 6621 ft | 195 kts | 200° |
| 2026-04-23 19:01 | 39.13491 | -77.17420 | 6457 ft | 194 kts | 200° |
| 2026-04-23 19:01 | 39.12183 | -77.17845 | 6275 ft | 194 kts | 199° |
| 2026-04-23 19:01 | 39.10873 | -77.18269 | 6096 ft | 194 kts | 199° |
| 2026-04-23 19:01 | 39.09566 | -77.18695 | 5914 ft | 193 kts | 199° |
| 2026-04-23 19:02 | 39.08705 | -77.18974 | 5798 ft | 193 kts | 198° |
| 2026-04-23 19:02 | 39.06964 | -77.19539 | 5590 ft | 191 kts | 198° |
| 2026-04-23 19:02 | 39.05684 | -77.19952 | 5464 ft | 188 kts | 197° |
| 2026-04-23 19:02 | 39.04419 | -77.20362 | 5335 ft | 188 kts | 197° |
| 2026-04-23 19:03 | 39.03152 | -77.20772 | 5217 ft | 188 kts | 198° |
| 2026-04-23 19:03 | 39.01882 | -77.21184 | 5094 ft | 188 kts | 197° |
| 2026-04-23 19:03 | 39.00615 | -77.21594 | 4972 ft | 188 kts | 197° |
| 2026-04-23 19:03 | 38.99350 | -77.22003 | 4851 ft | 188 kts | 197° |
| 2026-04-23 19:04 | 38.98084 | -77.22413 | 4708 ft | 188 kts | 197° |
| 2026-04-23 19:04 | 38.96823 | -77.22821 | 4580 ft | 186 kts | 197° |
| 2026-04-23 19:04 | 38.95563 | -77.23226 | 4445 ft | 186 kts | 197° |
| 2026-04-23 19:04 | 38.94310 | -77.23632 | 4307 ft | 186 kts | 197° |
| 2026-04-23 19:05 | 38.93060 | -77.24036 | 4197 ft | 185 kts | 196° |
| 2026-04-23 19:05 | 38.91802 | -77.24441 | 4081 ft | 187 kts | 196° |
| 2026-04-23 19:05 | 38.90536 | -77.24851 | 3977 ft | 186 kts | 197° |
| 2026-04-23 19:05 | 38.89303 | -77.25246 | 3975 ft | 180 kts | 197° |
| 2026-04-23 19:06 | 38.88103 | -77.25634 | 3972 ft | 177 kts | 197° |
| 2026-04-23 19:06 | 38.86920 | -77.26015 | 3962 ft | 174 kts | 197° |
| 2026-04-23 19:06 | 38.85753 | -77.26391 | 3940 ft | 172 kts | 197° |
| 2026-04-23 19:06 | 38.84605 | -77.26761 | 3939 ft | 169 kts | 197° |
| 2026-04-23 19:07 | 38.83466 | -77.27127 | 3937 ft | 168 kts | 198° |
| 2026-04-23 19:07 | 38.82332 | -77.27493 | 3936 ft | 167 kts | 198° |
| 2026-04-23 19:07 | 38.81208 | -77.27856 | 3937 ft | 167 kts | 198° |
| 2026-04-23 19:07 | 38.80075 | -77.28220 | 3935 ft | 168 kts | 197° |
| 2026-04-23 19:08 | 38.78938 | -77.28585 | 3934 ft | 169 kts | 197° |
| 2026-04-23 19:08 | 38.77790 | -77.28955 | 3934 ft | 171 kts | 197° |
| 2026-04-23 19:08 | 38.76642 | -77.29324 | 3933 ft | 170 kts | 197° |
| 2026-04-23 19:08 | 38.75499 | -77.29690 | 3930 ft | 169 kts | 197° |
| 2026-04-23 19:09 | 38.74380 | -77.30049 | 3938 ft | 168 kts | 198° |
| 2026-04-23 19:09 | 38.73608 | -77.30298 | 3901 ft | 171 kts | 197° |
| 2026-04-23 19:09 | 38.72061 | -77.30795 | 3813 ft | 176 kts | 197° |
| 2026-04-23 19:09 | 38.70877 | -77.31175 | 3742 ft | 175 kts | 197° |
| 2026-04-23 19:10 | 38.69698 | -77.31553 | 3669 ft | 174 kts | 197° |
| 2026-04-23 19:10 | 38.68910 | -77.31806 | 3619 ft | 172 kts | 197° |
| 2026-04-23 19:10 | 38.67393 | -77.32292 | 3515 ft | 166 kts | 197° |
| 2026-04-23 19:10 | 38.66281 | -77.32646 | 3452 ft | 164 kts | 197° |
| 2026-04-23 19:11 | 38.65557 | -77.32916 | 3451 ft | 157 kts | 206° |
| 2026-04-23 19:11 | 38.64650 | -77.33640 | 3343 ft | 154 kts | 225° |
| 2026-04-23 19:11 | 38.63974 | -77.34703 | 3092 ft | 157 kts | 242° |
| 2026-04-23 19:11 | 38.63755 | -77.36009 | 2874 ft | 145 kts | 279° |
| 2026-04-23 19:12 | 38.64131 | -77.37180 | 2649 ft | 142 kts | 300° |
| 2026-04-23 19:12 | 38.64630 | -77.38266 | 2416 ft | 145 kts | 302° |
| 2026-04-23 19:12 | 38.65214 | -77.39327 | 2133 ft | 146 kts | 311° |
| 2026-04-23 19:12 | 38.65773 | -77.40371 | 1945 ft | 140 kts | 289° |
| 2026-04-23 19:13 | 38.65959 | -77.41591 | 1676 ft | 140 kts | 283° |
| 2026-04-23 19:13 | 38.66186 | -77.42784 | 1428 ft | 140 kts | 289° |
| 2026-04-23 19:13 | 38.66565 | -77.43886 | 1296 ft | 131 kts | 300° |
| 2026-04-23 19:13 | 38.66994 | -77.44883 | 1156 ft | 127 kts | 302° |
| 2026-04-23 19:14 | 38.67446 | -77.45855 | 982 ft | 125 kts | 302° |
| 2026-04-23 19:14 | 38.67907 | -77.46732 | 882 ft | 113 kts | 310° |
| 2026-04-23 19:14 | 38.68392 | -77.47463 | 797 ft | 105 kts | 309° |
| 2026-04-23 19:14 | 38.68863 | -77.48171 | 659 ft | 102 kts | 312° |
| 2026-04-23 19:15 | 38.69287 | -77.48876 | 564 ft | 99 kts | 304° |
| 2026-04-23 19:15 | 38.69677 | -77.49560 | 535 ft | 90 kts | 309° |
| 2026-04-23 19:15 | 38.70102 | -77.50101 | 460 ft | 83 kts | 317° |
| 2026-04-23 19:15 | 38.70551 | -77.50541 | 382 ft | 81 kts | 324° |
| 2026-04-23 19:16 | 38.71024 | -77.50926 | 312 ft | 80 kts | 325° |
| 2026-04-23 19:16 | 38.71504 | -77.51255 | 243 ft | 77 kts | 326° |
| 2026-04-23 19:16 | 38.71937 | -77.51578 | 180 ft | 61 kts | 329° |
| 2026-04-23 19:17 | 38.72182 | -77.51830 | 183 ft | 6 kts | 242° |
| 2026-04-23 19:17 | 38.72155 | -77.51865 | 182 ft | 8 kts | 245° |
| 2026-04-23 19:17 | 38.72176 | -77.51925 | 183 ft | 9 kts | 315° |
| 2026-04-23 19:17 | 38.72218 | -77.51980 | 189 ft | 4 kts | 283° |
| 2026-04-23 19:18 | 38.72201 | -77.51990 | 184 ft | 2 kts | 114° |
| 2026-04-23 19:18 | 38.72201 | -77.51989 | 184 ft | 0 kts | 104° |